Time;durP1;ratioP1;P1;durP2;ratioP2;P2;SDS_P1;SDS_P2;PMS_P1;PMS_P2;Temp;Humidity;BMP_temperature;BMP_pressure;BME280_temperature;BME280_humidity;BME280_pressure;Samples;Min_cycle;Max_cycle;Signal;HPM_P1;HPM_P2
2023/06/27 00:01:06;;;;;;;;;;;;;;;19.79;49.82;101361.47;7354831;19;19919;-58
2023/06/27 00:03:33;;;;;;;;;;;;;;;19.76;50.23;101356.28;7350829;19;20618;-57
2023/06/27 00:06:00;;;;;;;;;;;;;;;19.76;50.53;101358.94;7353085;19;19926;-58
2023/06/27 00:08:27;;;;;;;;;;;;;;;19.76;50.65;101356.28;7352805;19;19939;-58
2023/06/27 00:10:53;;;;;;;;;;;;;;;19.76;50.02;101358.09;7354155;19;19935;-57
2023/06/27 00:13:18;;;;;;;;;;;;;;;19.76;50.05;101345.69;7354860;19;19957;-58
2023/06/27 00:15:43;;;;;;;;;;;;;;;19.76;50.25;101335.09;7350104;19;19922;-57
2023/06/27 00:18:10;;;;;;;;;;;;;;;19.75;50.33;101332.53;7354436;19;19943;-57
2023/06/27 00:20:35;;;;;;;;;;;;;;;19.44;50.29;101283.72;7352451;19;19951;-58
2023/06/27 00:23:16;;;;;;;;;;;;;;;19.75;50.24;101328.09;7354130;19;19922;-57
2023/06/27 00:25:42;;;;;;;;;;;;;;;19.74;50.36;101328.19;7352587;19;20323;-58
2023/06/27 00:28:07;;;;;;;;;;;;;;;19.71;50.48;101339.78;7356064;19;19929;-57
2023/06/27 00:30:33;;;;;;;;;;;;;;;19.71;50.49;101337.13;7349992;19;19997;-58
2023/06/27 00:32:58;;;;;;;;;;;;;;;19.69;50.83;101329.25;7354808;19;19926;-58
2023/06/27 00:35:23;;;;;;;;;;;;;;;19.69;50.76;101329.25;7342912;19;19926;-57
2023/06/27 00:37:48;;;;;;;;;;;;;;;19.70;50.43;101335.41;7352844;19;19929;-57
2023/06/27 00:40:14;;;;;;;;;;;;;;;19.69;50.66;101331.06;7349237;19;19919;-57
2023/06/27 00:42:39;;;;;;;;;;;;;;;19.68;50.72;101332.84;7348307;19;20454;-58
2023/06/27 00:45:05;;;;;;;;;;;;;;;19.68;50.79;101326.69;7353223;19;20696;-56
2023/06/27 00:47:30;;;;;;;;;;;;;;;19.69;50.85;101323.09;7354378;19;20480;-58
2023/06/27 00:49:56;;;;;;;;;;;;;;;19.68;50.51;101321.41;7346561;19;19933;-58
2023/06/27 00:52:21;;;;;;;;;;;;;;;19.67;51.09;101335.59;7353177;19;20002;-58
2023/06/27 00:54:46;;;;;;;;;;;;;;;19.66;50.87;101334.69;7348544;19;20849;-58
2023/06/27 00:57:12;;;;;;;;;;;;;;;19.65;50.79;101340.09;7352031;19;19915;-57
2023/06/27 00:59:37;;;;;;;;;;;;;;;19.65;51.22;101340.09;7357541;19;20229;-58
2023/06/27 01:02:03;;;;;;;;;;;;;;;19.64;50.69;101341.03;7359216;19;19918;-57
2023/06/27 01:04:28;;;;;;;;;;;;;;;19.64;50.94;101343.69;7348415;19;20530;-57
2023/06/27 01:07:00;;;;;;;;;;;;;;;19.63;50.69;101334.88;7358469;19;20034;-56
2023/06/27 01:09:31;;;;;;;;;;;;;;;19.62;50.79;101335.81;7359738;19;19919;-57
2023/06/27 01:12:16;;;;;;;;;;;;;;;19.62;51.43;101332.31;7354182;19;19955;-58
2023/06/27 01:14:45;;;;;;;;;;;;;;;19.60;50.69;101324.41;7359130;19;19915;-57
2023/06/27 01:17:10;;;;;;;;;;;;;;;19.59;50.86;101321.81;7359083;19;19911;-57
2023/06/27 01:19:36;;;;;;;;;;;;;;;19.58;50.72;101320.13;7358650;19;20385;-56
2023/06/27 01:22:07;;;;;;;;;;;;;;;19.56;50.98;101319.31;7357343;19;19933;-58
2023/06/27 01:24:32;;;;;;;;;;;;;;;19.56;51.07;101316.66;7355041;19;19914;-57
2023/06/27 01:26:58;;;;;;;;;;;;;;;19.54;51.00;101308.81;7358370;19;20374;-58
2023/06/27 01:29:25;;;;;;;;;;;;;;;19.54;50.78;101307.94;7356683;19;19923;-57
2023/06/27 01:31:59;;;;;;;;;;;;;;;19.53;50.77;101312.41;7357258;19;19994;-57
2023/06/27 01:34:40;;;;;;;;;;;;;;;19.52;50.79;101307.19;7357288;19;19921;-57
2023/06/27 01:37:15;;;;;;;;;;;;;;;19.50;50.67;101290.50;7356833;19;20618;-57
2023/06/27 01:39:50;;;;;;;;;;;;;;;19.49;50.94;101288.78;7356900;19;19963;-57
2023/06/27 01:42:17;;;;;;;;;;;;;;;19.47;51.21;101282.72;7358452;19;19930;-57
2023/06/27 01:44:44;;;;;;;;;;;;;;;19.42;51.03;101273.22;7354363;19;19952;-57
2023/06/27 01:47:10;;;;;;;;;;;;;;;19.41;51.00;101271.50;7357855;19;19911;-58
2023/06/27 01:49:35;;;;;;;;;;;;;;;19.39;50.85;101264.56;7357548;19;20458;-57
2023/06/27 01:52:00;;;;;;;;;;;;;;;19.38;51.21;101262.84;7355522;19;20869;-57
2023/06/27 01:54:26;;;;;;;;;;;;;;;19.34;51.29;101254.19;7357177;19;20753;-57
2023/06/27 01:56:51;;;;;;;;;;;;;;;19.34;51.29;101264.78;7358014;19;19922;-58
2023/06/27 01:59:16;;;;;;;;;;;;;;;19.32;51.08;101261.38;7352505;19;19922;-54
2023/06/27 02:01:41;;;;;;;;;;;;;;;19.32;51.15;101265.81;7360595;19;19923;-57
2023/06/27 02:04:07;;;;;;;;;;;;;;;19.28;51.82;101262.44;7359766;19;19974;-57
2023/06/27 02:06:32;;;;;;;;;;;;;;;19.27;51.62;101266.03;7358079;19;19930;-57
2023/06/27 02:08:57;;;;;;;;;;;;;;;19.26;51.26;101255.50;7359627;19;19914;-57
2023/06/27 02:11:22;;;;;;;;;;;;;;;19.24;51.22;101252.94;7350688;19;20399;-58
2023/06/27 02:13:48;;;;;;;;;;;;;;;19.21;52.08;101253.09;7359993;19;19926;-57
2023/06/27 02:16:13;;;;;;;;;;;;;;;19.19;51.55;101257.59;7358175;19;19915;-57
2023/06/27 02:18:38;;;;;;;;;;;;;;;19.18;51.97;101255.91;7355518;19;19936;-57
2023/06/27 02:21:04;;;;;;;;;;;;;;;19.18;51.95;101253.25;7357250;19;20462;-57
2023/06/27 02:23:29;;;;;;;;;;;;;;;19.18;52.05;101253.25;7359992;19;19974;-57
2023/06/27 02:25:55;;;;;;;;;;;;;;;19.18;52.12;101254.09;7358147;19;19964;-57
2023/06/27 02:28:20;;;;;;;;;;;;;;;19.18;52.33;101247.94;7358141;19;19926;-57
2023/06/27 02:30:45;;;;;;;;;;;;;;;19.17;52.12;101241.81;7356485;19;20873;-57
2023/06/27 02:33:10;;;;;;;;;;;;;;;19.17;52.21;101241.81;7354713;19;20068;-57
2023/06/27 02:35:36;;;;;;;;;;;;;;;18.95;52.48;101200.56;7358363;19;19936;-57
2023/06/27 02:38:01;;;;;;;;;;;;;;;19.18;52.26;101242.66;7357145;19;19927;-57
2023/06/27 02:40:28;;;;;;;;;;;;;;;19.18;51.91;101242.66;7358057;19;19923;-58
2023/06/27 02:42:53;;;;;;;;;;;;;;;19.17;52.15;101236.50;7358828;19;19923;-58
2023/06/27 02:45:18;;;;;;;;;;;;;;;19.17;52.05;101228.56;7355158;19;19923;-57
2023/06/27 02:47:44;;;;;;;;;;;;;;;19.17;52.39;101233.00;7358330;19;19990;-57
2023/06/27 02:50:09;;;;;;;;;;;;;;;19.16;51.95;101229.50;7358791;19;19915;-58
2023/06/27 02:52:34;;;;;;;;;;;;;;;19.15;52.50;101233.06;7359277;19;20643;-57
2023/06/27 02:54:59;;;;;;;;;;;;;;;19.13;52.71;101228.78;7359326;19;19918;-57
2023/06/27 02:57:25;;;;;;;;;;;;;;;19.11;51.99;101230.63;7349241;19;19942;-57
2023/06/27 02:59:50;;;;;;;;;;;;;;;19.10;52.67;101223.63;7353724;19;19924;-57
2023/06/27 03:02:15;;;;;;;;;;;;;;;19.09;53.00;101221.94;7359055;19;19938;-57
2023/06/27 03:04:41;;;;;;;;;;;;;;;19.08;52.47;101220.22;7356987;19;19915;-57
2023/06/27 03:07:06;;;;;;;;;;;;;;;19.06;53.14;101211.47;7359916;19;20398;-57
2023/06/27 03:09:32;;;;;;;;;;;;;;;19.06;52.42;101212.38;7357209;19;19911;-57
2023/06/27 03:11:58;;;;;;;;;;;;;;;19.05;52.85;101209.78;7356324;19;20358;-58
2023/06/27 03:14:23;;;;;;;;;;;;;;;19.00;52.35;101204.69;7351750;19;19923;-57
2023/06/27 03:16:48;;;;;;;;;;;;;;;18.97;53.31;101190.78;7345513;19;19990;-58
2023/06/27 03:19:14;;;;;;;;;;;;;;;18.89;53.53;101189.34;7352441;19;20682;-57
2023/06/27 03:21:39;;;;;;;;;;;;;;;18.84;53.58;101193.16;7356963;19;19914;-58
2023/06/27 03:24:04;;;;;;;;;;;;;;;18.77;53.74;101195.28;7359956;19;20501;-57
2023/06/27 03:26:30;;;;;;;;;;;;;;;18.71;53.35;101187.63;7358460;19;19911;-58
2023/06/27 03:28:55;;;;;;;;;;;;;;;18.66;53.75;101181.69;7359341;19;19919;-57
2023/06/27 03:31:21;;;;;;;;;;;;;;;18.61;54.53;101183.69;7357803;19;19918;-58
2023/06/27 03:33:46;;;;;;;;;;;;;;;18.57;54.59;101182.13;7358773;19;19954;-58
2023/06/27 03:36:11;;;;;;;;;;;;;;;18.54;54.59;101176.97;7349883;19;19914;-58
2023/06/27 03:38:37;;;;;;;;;;;;;;;18.53;54.15;101183.19;7359937;19;19911;-58
2023/06/27 03:41:02;;;;;;;;;;;;;;;18.49;54.39;101176.34;7357586;19;19919;-57
2023/06/27 03:43:27;;;;;;;;;;;;;;;18.47;54.41;101170.28;7356849;19;19914;-57
2023/06/27 03:45:52;;;;;;;;;;;;;;;18.45;54.78;101174.75;7356577;19;19919;-57
2023/06/27 03:48:18;;;;;;;;;;;;;;;18.42;54.16;101168.69;7355073;19;20576;-57
2023/06/27 03:50:43;;;;;;;;;;;;;;;18.09;55.26;101106.84;7357987;19;19923;-58
2023/06/27 03:53:08;;;;;;;;;;;;;;;18.39;54.38;101158.25;7353701;19;19930;-57
2023/06/27 03:55:34;;;;;;;;;;;;;;;18.40;54.90;101157.34;7358956;19;19948;-57
2023/06/27 03:57:59;;;;;;;;;;;;;;;18.39;55.31;101154.75;7358616;19;19923;-57
2023/06/27 04:00:25;;;;;;;;;;;;;;;18.37;55.57;101157.47;7357078;19;20272;-57
2023/06/27 04:02:50;;;;;;;;;;;;;;;18.36;55.37;101153.13;7356729;19;20335;-57
2023/06/27 04:05:15;;;;;;;;;;;;;;;18.36;54.42;101153.13;7359133;19;19919;-57
2023/06/27 04:07:41;;;;;;;;;;;;;;;18.35;55.25;101153.22;7352505;19;19910;-58
2023/06/27 04:10:07;;;;;;;;;;;;;;;18.34;54.79;101149.69;7358528;19;19926;-56
2023/06/27 04:12:32;;;;;;;;;;;;;;;18.34;55.27;101144.41;7355522;19;19927;-58
2023/06/27 04:14:57;;;;;;;;;;;;;;;18.33;54.87;101142.69;7357211;19;19926;-57
2023/06/27 04:17:22;;;;;;;;;;;;;;;18.32;55.14;101138.34;7359338;19;19929;-57
2023/06/27 04:19:48;;;;;;;;;;;;;;;18.31;55.23;101135.78;7357276;19;20043;-58
2023/06/27 04:22:13;;;;;;;;;;;;;;;18.29;55.08;101138.47;7356242;19;19923;-57
2023/06/27 04:24:38;;;;;;;;;;;;;;;18.28;54.60;101144.69;7353752;19;19915;-57
2023/06/27 04:27:03;;;;;;;;;;;;;;;18.27;54.77;101129.78;7357166;19;19939;-57
2023/06/27 04:29:29;;;;;;;;;;;;;;;18.27;55.12;101136.84;7357003;19;19911;-58
2023/06/27 04:31:54;;;;;;;;;;;;;;;18.24;54.92;101135.19;7354082;19;19923;-57
2023/06/27 04:34:19;;;;;;;;;;;;;;;18.21;55.16;101140.66;7353275;19;19919;-58
2023/06/27 04:36:44;;;;;;;;;;;;;;;18.18;55.42;101134.63;7358118;19;19940;-58
2023/06/27 04:39:10;;;;;;;;;;;;;;;18.14;55.14;101136.56;7353199;19;20028;-57
2023/06/27 04:41:35;;;;;;;;;;;;;;;18.10;55.25;101129.72;7359416;19;19925;-57
2023/06/27 04:44:00;;;;;;;;;;;;;;;18.06;55.41;101129.00;7355334;19;19935;-58
2023/06/27 04:46:29;;;;;;;;;;;;;;;18.02;55.59;101132.72;7356374;19;20020;-58
2023/06/27 04:48:56;;;;;;;;;;;;;;;17.97;55.95;101129.44;7355900;19;19943;-57
2023/06/27 04:51:22;;;;;;;;;;;;;;;17.95;55.87;101125.16;7349725;19;19931;-57
2023/06/27 04:53:47;;;;;;;;;;;;;;;17.94;56.42;101134.00;7358597;19;20479;-57
2023/06/27 04:56:13;;;;;;;;;;;;;;;17.93;55.82;101129.66;7353459;19;19938;-57
2023/06/27 04:58:38;;;;;;;;;;;;;;;17.93;56.05;101127.00;7355851;19;19946;-60
2023/06/27 05:01:03;;;;;;;;;;;;;;;17.93;56.31;101124.34;7355640;19;19934;-60
2023/06/27 05:03:29;;;;;;;;;;;;;;;17.94;56.20;101118.13;7352218;19;19940;-59
2023/06/27 05:05:54;;;;;;;;;;;;;;;17.93;56.38;101117.28;7355070;19;19923;-60
2023/06/27 05:08:19;;;;;;;;;;;;;;;17.93;56.11;101116.44;7354801;19;19926;-59
2023/06/27 05:10:45;;;;;;;;;;;;;;;17.93;56.39;101116.44;7326055;19;20002;-60
2023/06/27 05:13:10;;;;;;;;;;;;;;;17.92;56.76;101110.28;7355393;19;19925;-61
2023/06/27 05:15:35;;;;;;;;;;;;;;;17.93;56.52;101111.16;7354631;19;20336;-59
2023/06/27 05:18:06;;;;;;;;;;;;;;;17.92;57.04;101105.00;7353365;19;19919;-58
2023/06/27 05:20:32;;;;;;;;;;;;;;;17.92;56.92;101107.66;7351623;19;20219;-59
2023/06/27 05:22:57;;;;;;;;;;;;;;;17.94;56.95;101103.13;7353977;19;19930;-59
2023/06/27 05:25:22;;;;;;;;;;;;;;;17.94;57.13;101097.84;7354211;19;19919;-57
2023/06/27 05:27:47;;;;;;;;;;;;;;;17.96;57.00;101096.00;7353713;19;19914;-60
2023/06/27 05:30:13;;;;;;;;;;;;;;;17.97;57.27;101104.78;7356121;19;19939;-59
2023/06/27 05:32:38;;;;;;;;;;;;;;;18.00;57.13;101096.75;7349558;19;21125;-59
2023/06/27 05:35:04;;;;;;;;;;;;;;;18.00;57.04;101096.75;7355162;19;20578;-59
2023/06/27 05:37:29;;;;;;;;;;;;;;;18.01;57.50;101087.88;7352576;19;19930;-59
2023/06/27 05:39:54;;;;;;;;;;;;;;;18.02;57.33;101089.59;7354683;19;19918;-60
2023/06/27 05:42:19;;;;;;;;;;;;;;;18.04;57.46;101093.84;7347363;19;19915;-59
2023/06/27 05:44:45;;;;;;;;;;;;;;;18.07;57.66;101082.28;7356621;19;19929;-59
2023/06/27 05:47:10;;;;;;;;;;;;;;;18.09;58.04;101075.13;7361422;19;19994;-59
2023/06/27 05:49:35;;;;;;;;;;;;;;;18.11;58.05;101084.72;7359757;19;20550;-59
2023/06/27 05:52:00;;;;;;;;;;;;;;;18.14;57.77;101078.41;7357434;19;19991;-58
2023/06/27 05:54:26;;;;;;;;;;;;;;;18.18;57.75;101079.13;7356554;19;19918;-60
2023/06/27 05:56:51;;;;;;;;;;;;;;;18.21;57.64;101073.72;7358288;19;19938;-60
2023/06/27 05:59:16;;;;;;;;;;;;;;;18.23;57.68;101070.03;7352712;19;19922;-60
2023/06/27 06:01:41;;;;;;;;;;;;;;;18.26;58.28;101064.63;7360795;19;20640;-60
2023/06/27 06:04:07;;;;;;;;;;;;;;;18.31;58.14;101059.97;7361356;19;19915;-60
2023/06/27 06:06:37;;;;;;;;;;;;;;;18.34;57.88;101054.50;7360176;19;19915;-59
2023/06/27 06:09:03;;;;;;;;;;;;;;;18.39;57.90;101055.13;7360602;19;19926;-59
2023/06/27 06:11:29;;;;;;;;;;;;;;;18.42;58.20;101051.50;7357589;19;20566;-60
2023/06/27 06:13:54;;;;;;;;;;;;;;;18.47;58.05;101051.25;7357458;19;19922;-60
2023/06/27 06:16:19;;;;;;;;;;;;;;;18.51;58.10;101050.19;7361441;19;19934;-59
2023/06/27 06:18:45;;;;;;;;;;;;;;;18.55;57.87;101057.00;7359021;19;19919;-59
2023/06/27 06:21:12;;;;;;;;;;;;;;;18.59;57.84;101050.63;7358849;19;19919;-59
2023/06/27 06:23:37;;;;;;;;;;;;;;;18.63;58.07;101054.84;7359430;19;19994;-59
2023/06/27 06:26:03;;;;;;;;;;;;;;;18.67;58.57;101053.75;7361079;19;20002;-59
2023/06/27 06:28:28;;;;;;;;;;;;;;;18.70;58.36;101037.75;7356679;19;20454;-59
2023/06/27 06:30:53;;;;;;;;;;;;;;;18.76;58.29;101044.53;7358173;19;19964;-59
2023/06/27 06:33:19;;;;;;;;;;;;;;;18.80;58.00;101039.00;7356808;19;19927;-59
2023/06/27 06:35:44;;;;;;;;;;;;;;;18.85;58.56;101034.31;7354480;19;19923;-59
2023/06/27 06:38:09;;;;;;;;;;;;;;;18.90;58.48;101031.44;7354678;19;19934;-60
2023/06/27 06:40:34;;;;;;;;;;;;;;;18.95;59.17;101036.50;7356368;19;19935;-59
2023/06/27 06:43:00;;;;;;;;;;;;;;;19.00;59.32;101032.66;7357539;19;19919;-59
2023/06/27 06:45:25;;;;;;;;;;;;;;;19.03;59.38;101036.94;7358697;19;20463;-60
2023/06/27 06:47:52;;;;;;;;;;;;;;;19.05;59.18;101029.78;7350940;19;19933;-60
2023/06/27 06:50:17;;;;;;;;;;;;;;;19.08;59.23;101032.28;7357581;19;19915;-60
2023/06/27 06:52:43;;;;;;;;;;;;;;;19.10;59.43;101033.88;7357300;19;19937;-60
2023/06/27 06:55:08;;;;;;;;;;;;;;;19.13;59.38;101033.75;7358738;19;19919;-60
2023/06/27 06:57:34;;;;;;;;;;;;;;;19.14;59.46;101043.38;7353975;19;20348;-60
2023/06/27 06:59:59;;;;;;;;;;;;;;;19.17;59.44;101031.78;7355916;19;19958;-60
2023/06/27 07:02:24;;;;;;;;;;;;;;;19.18;59.83;101031.69;7349220;19;19919;-59
2023/06/27 07:04:50;;;;;;;;;;;;;;;19.21;59.58;101035.09;7351668;19;19911;-60
2023/06/27 07:07:15;;;;;;;;;;;;;;;19.22;60.48;101027.09;7357828;19;19918;-60
2023/06/27 07:09:40;;;;;;;;;;;;;;;19.23;60.49;101015.56;7357496;19;19960;-59
2023/06/27 07:12:06;;;;;;;;;;;;;;;19.25;60.43;101016.34;7357565;19;19991;-59
2023/06/27 07:14:31;;;;;;;;;;;;;;;19.27;60.92;101019.78;7352946;19;20347;-58
2023/06/27 07:16:56;;;;;;;;;;;;;;;19.30;60.96;101014.28;7340202;19;20280;-59
2023/06/27 07:19:21;;;;;;;;;;;;;;;19.33;60.81;101010.63;7352192;19;19942;-59
2023/06/27 07:21:47;;;;;;;;;;;;;;;19.35;60.55;101012.25;7354091;19;19994;-60
2023/06/27 07:24:12;;;;;;;;;;;;;;;19.37;61.12;101007.75;7353058;19;19931;-60
2023/06/27 07:26:37;;;;;;;;;;;;;;;19.40;61.35;101010.22;7352084;19;20724;-60
2023/06/27 07:29:03;;;;;;;;;;;;;;;19.42;61.67;101011.00;7352383;19;19935;-59
2023/06/27 07:31:28;;;;;;;;;;;;;;;19.44;61.82;101009.09;7352247;19;20397;-59
2023/06/27 07:33:55;;;;;;;;;;;;;;;19.48;61.55;101006.31;7351410;19;19985;-60
2023/06/27 07:36:20;;;;;;;;;;;;;;;19.51;61.94;101003.47;7350384;19;20009;-59
2023/06/27 07:38:45;;;;;;;;;;;;;;;19.55;62.01;101007.66;7352271;19;20650;-59
2023/06/27 07:41:10;;;;;;;;;;;;;;;19.59;62.55;101009.22;7352354;19;20490;-60
2023/06/27 07:43:36;;;;;;;;;;;;;;;19.63;62.25;100998.38;7354212;19;19930;-60
2023/06/27 07:46:01;;;;;;;;;;;;;;;19.67;61.87;100999.09;7351898;19;19926;-59
2023/06/27 07:48:26;;;;;;;;;;;;;;;19.73;62.23;100995.22;7352433;19;19927;-59
2023/06/27 07:50:51;;;;;;;;;;;;;;;19.77;62.48;100989.69;7351078;19;19926;-58
2023/06/27 07:53:17;;;;;;;;;;;;;;;19.83;62.67;100988.47;7354370;19;19923;-59
2023/06/27 07:55:42;;;;;;;;;;;;;;;19.87;63.13;100998.81;7349531;19;19939;-60
2023/06/27 07:58:07;;;;;;;;;;;;;;;19.93;62.93;100987.84;7353340;19;20466;-59
2023/06/27 08:00:33;;;;;;;;;;;;;;;19.98;63.04;100982.28;7351950;19;19919;-59
2023/06/27 08:02:58;;;;;;;;;;;;;;;20.04;63.25;100983.75;7352246;19;20560;-59
2023/06/27 08:05:24;;;;;;;;;;;;;;;20.08;62.87;100980.81;7354557;19;20028;-59
2023/06/27 08:07:49;;;;;;;;;;;;;;;20.15;63.35;100995.41;7349533;19;19926;-59
2023/06/27 08:10:14;;;;;;;;;;;;;;;20.19;62.83;100974.91;7354526;19;19926;-59
2023/06/27 08:12:39;;;;;;;;;;;;;;;20.25;62.87;100966.56;7350999;19;19949;-59
2023/06/27 08:15:05;;;;;;;;;;;;;;;20.33;63.79;100988.22;7350120;19;19952;-59
2023/06/27 08:17:30;;;;;;;;;;;;;;;20.43;63.62;100978.75;7351335;19;19951;-59
2023/06/27 08:19:56;;;;;;;;;;;;;;;20.52;63.76;100979.16;7353167;19;19937;-60
2023/06/27 08:22:21;;;;;;;;;;;;;;;20.59;63.12;100964.59;7350154;19;19915;-59
2023/06/27 08:24:46;;;;;;;;;;;;;;;20.67;63.23;100957.88;7353415;19;20631;-59
2023/06/27 08:27:11;;;;;;;;;;;;;;;20.78;63.73;100967.81;7349279;19;19915;-60
2023/06/27 08:29:37;;;;;;;;;;;;;;;20.87;63.55;100961.97;7349262;19;19918;-59
2023/06/27 08:32:02;;;;;;;;;;;;;;;20.94;62.86;100955.34;7352487;19;19927;-60
2023/06/27 08:34:31;;;;;;;;;;;;;;;21.02;62.74;100956.66;7349469;19;19926;-59
2023/06/27 08:36:56;;;;;;;;;;;;;;;21.09;62.94;100950.88;7351661;19;20983;-59
2023/06/27 08:39:22;;;;;;;;;;;;;;;21.16;62.61;100938.06;7348588;19;19939;-59
2023/06/27 08:41:47;;;;;;;;;;;;;;;21.24;62.82;100943.75;7348522;19;20289;-60
2023/06/27 08:44:13;;;;;;;;;;;;;;;21.09;62.55;100915.50;7348239;19;19926;-60
2023/06/27 08:46:39;;;;;;;;;;;;;;;21.36;62.04;100958.94;7352054;19;19982;-60
2023/06/27 08:49:07;;;;;;;;;;;;;;;21.40;61.95;100952.47;7352491;19;19986;-60
2023/06/27 08:51:33;;;;;;;;;;;;;;;21.43;61.64;100960.22;7350361;19;19930;-59
2023/06/27 08:54:08;;;;;;;;;;;;;;;21.44;61.53;100959.31;7349323;19;19923;-59
2023/06/27 08:56:34;;;;;;;;;;;;;;;21.45;61.65;100949.53;7350857;19;19927;-59
2023/06/27 08:59:05;;;;;;;;;;;;;;;21.43;61.63;100952.25;7351344;19;19922;-60
2023/06/27 09:01:32;;;;;;;;;;;;;;;21.44;61.57;100961.09;7352498;19;19962;-60
2023/06/27 09:04:01;;;;;;;;;;;;;;;21.42;61.50;100955.88;7350757;19;20618;-59
2023/06/27 09:06:27;;;;;;;;;;;;;;;21.40;61.55;100952.47;7352557;19;20468;-59
2023/06/27 09:08:53;;;;;;;;;;;;;;;21.38;61.26;100949.06;7349033;19;19919;-59
2023/06/27 09:11:19;;;;;;;;;;;;;;;21.36;61.11;100950.13;7348340;19;20228;-60
2023/06/27 09:13:45;;;;;;;;;;;;;;;21.34;61.63;100955.53;7348797;19;19943;-60
2023/06/27 09:16:11;;;;;;;;;;;;;;;21.35;61.85;100954.56;7352034;19;19915;-60
2023/06/27 09:18:38;;;;;;;;;;;;;;;21.35;61.57;100959.03;7349977;19;20307;-60
2023/06/27 09:21:03;;;;;;;;;;;;;;;21.36;61.50;100961.59;7356800;19;19937;-59
2023/06/27 09:23:29;;;;;;;;;;;;;;;21.40;61.88;100957.78;7360397;19;19923;-59
2023/06/27 09:26:07;;;;;;;;;;;;;;;21.43;61.67;100954.91;7355392;19;20648;-60
2023/06/27 09:28:42;;;;;;;;;;;;;;;21.49;61.70;100956.34;7357007;19;20046;-59
2023/06/27 09:31:10;;;;;;;;;;;;;;;21.53;61.66;100943.72;7356539;19;19963;-59
2023/06/27 09:33:35;;;;;;;;;;;;;;;21.60;61.67;100947.69;7360069;19;19935;-60
2023/06/27 09:36:01;;;;;;;;;;;;;;;21.63;61.83;100950.97;7342589;19;19936;-59
2023/06/27 09:38:30;;;;;;;;;;;;;;;21.67;61.69;100954.31;7349988;19;19923;-60
2023/06/27 09:41:05;;;;;;;;;;;;;;;21.73;61.90;100951.25;7353307;19;19923;-60
2023/06/27 09:43:35;;;;;;;;;;;;;;;21.78;61.67;100943.81;7354052;19;19923;-60
2023/06/27 09:46:01;;;;;;;;;;;;;;;21.81;61.95;100927.69;7354521;19;20006;-60
2023/06/27 09:48:28;;;;;;;;;;;;;;;21.87;61.93;100932.59;7355027;19;20037;-60
2023/06/27 09:51:00;;;;;;;;;;;;;;;21.94;61.70;100943.66;7350782;19;19932;-60
2023/06/27 09:53:25;;;;;;;;;;;;;;;21.98;61.90;100940.69;7354536;19;19919;-59
2023/06/27 09:55:58;;;;;;;;;;;;;;;22.04;61.17;100934.09;7354780;19;19926;-61
2023/06/27 09:58:27;;;;;;;;;;;;;;;22.07;61.55;100935.72;7353708;19;19932;-59
2023/06/27 10:00:52;;;;;;;;;;;;;;;22.15;61.31;100933.41;7351078;19;19919;-59
2023/06/27 10:03:20;;;;;;;;;;;;;;;22.20;61.45;100953.47;7354374;19;19923;-59
2023/06/27 10:05:45;;;;;;;;;;;;;;;22.26;61.38;100946.88;7353152;19;19930;-60
2023/06/27 10:08:11;;;;;;;;;;;;;;;22.30;60.89;100940.34;7353833;19;19933;-60
2023/06/27 10:10:36;;;;;;;;;;;;;;;22.36;60.82;100952.41;7352618;19;20014;-59
2023/06/27 10:13:02;;;;;;;;;;;;;;;22.40;60.81;100944.09;7354498;19;20002;-60
2023/06/27 10:15:27;;;;;;;;;;;;;;;22.44;60.66;100940.28;7358631;19;19942;-60
2023/06/27 10:17:52;;;;;;;;;;;;;;;22.46;60.53;100932.22;7358318;19;20739;-59
2023/06/27 10:20:19;;;;;;;;;;;;;;;22.47;60.33;100924.13;7356312;19;19947;-60
2023/06/27 10:22:45;;;;;;;;;;;;;;;22.48;60.51;100936.44;7354509;19;19915;-60
2023/06/27 10:25:11;;;;;;;;;;;;;;;22.50;60.23;100921.22;7357775;19;19926;-60
2023/06/27 10:27:38;;;;;;;;;;;;;;;22.51;60.18;100922.94;7355792;19;19936;-60
2023/06/27 10:30:25;;;;;;;;;;;;;;;22.54;59.96;100948.47;7356777;19;19926;-60
2023/06/27 10:32:51;;;;;;;;;;;;;;;22.57;59.97;100923.47;7357005;19;19925;-60
2023/06/27 10:35:26;;;;;;;;;;;;;;;22.58;59.91;100925.19;7353843;19;19918;-59
2023/06/27 10:38:04;;;;;;;;;;;;;;;22.58;59.84;100920.69;7357332;19;20625;-60
2023/06/27 10:40:49;;;;;;;;;;;;;;;22.58;59.75;100910.06;7352021;19;19923;-60
2023/06/27 10:43:33;;;;;;;;;;;;;;;22.57;59.69;100908.34;7357537;19;19950;-60
2023/06/27 10:46:06;;;;;;;;;;;;;;;22.57;59.36;100902.19;7358537;19;20478;-60
2023/06/27 10:49:10;;;;;;;;;;;;;;;22.56;59.51;100905.78;7358178;19;19940;-60
2023/06/27 10:51:42;;;;;;;;;;;;;;;22.57;59.87;100910.16;7249272;19;2004357;-60
2023/06/27 10:54:08;;;;;;;;;;;;;;;22.59;59.56;100918.88;7350310;19;19915;-60
2023/06/27 10:56:34;;;;;;;;;;;;;;;22.61;59.68;100915.19;7354891;19;19915;-59
2023/06/27 10:59:01;;;;;;;;;;;;;;;22.63;59.68;100917.72;7353370;19;19922;-60
2023/06/27 11:01:27;;;;;;;;;;;;;;;22.66;59.85;100912.19;7354390;19;20323;-60
2023/06/27 11:03:56;;;;;;;;;;;;;;;22.69;59.55;100911.97;7355959;19;19922;-59
2023/06/27 11:06:38;;;;;;;;;;;;;;;22.74;59.69;100910.69;7354686;19;20770;-59
2023/06/27 11:09:03;;;;;;;;;;;;;;;22.80;59.80;100920.03;7354460;19;19930;-60
2023/06/27 11:11:29;;;;;;;;;;;;;;;22.83;59.71;100919.84;7353527;19;19934;-60
2023/06/27 11:14:03;;;;;;;;;;;;;;;22.89;59.61;100929.25;7352154;19;19919;-60
2023/06/27 11:16:28;;;;;;;;;;;;;;;22.95;59.61;100928.78;7356762;19;19923;-60
2023/06/27 11:18:54;;;;;;;;;;;;;;;23.02;59.88;100922.09;7354533;19;19929;-60
2023/06/27 11:21:19;;;;;;;;;;;;;;;23.08;59.34;100923.47;7352472;19;20238;-60
2023/06/27 11:23:44;;;;;;;;;;;;;;;23.16;59.67;100916.59;7353717;19;20642;-60
2023/06/27 11:26:10;;;;;;;;;;;;;;;23.25;59.47;100917.75;7352866;19;19944;-60
2023/06/27 11:28:35;;;;;;;;;;;;;;;23.33;59.34;100925.22;7348052;19;19927;-60
2023/06/27 11:31:00;;;;;;;;;;;;;;;23.39;59.11;100912.28;7353634;19;19927;-60
2023/06/27 11:33:26;;;;;;;;;;;;;;;23.42;58.81;100908.53;7353943;19;19933;-60
2023/06/27 11:35:51;;;;;;;;;;;;;;;23.44;58.39;100904.81;7343048;19;20664;-59
2023/06/27 11:38:16;;;;;;;;;;;;;;;23.44;58.38;100904.81;7343737;19;19934;-60
2023/06/27 11:40:49;;;;;;;;;;;;;;;23.43;58.34;100895.13;7346165;19;19922;-61
2023/06/27 11:43:15;;;;;;;;;;;;;;;23.41;57.82;100898.84;7346093;19;19915;-60
2023/06/27 11:45:44;;;;;;;;;;;;;;;23.37;58.14;100898.22;7350353;19;20644;-60
2023/06/27 11:48:09;;;;;;;;;;;;;;;23.33;57.81;100907.41;7349917;19;20951;-60
2023/06/27 11:50:34;;;;;;;;;;;;;;;23.30;57.97;100902.28;7349060;19;20226;-60
2023/06/27 11:53:00;;;;;;;;;;;;;;;23.27;57.87;100907.88;7347158;19;19936;-60
2023/06/27 11:55:26;;;;;;;;;;;;;;;23.24;57.52;100903.59;7346380;19;19965;-60
2023/06/27 11:57:55;;;;;;;;;;;;;;;23.20;57.70;100909.25;7345900;19;19919;-60
2023/06/27 12:00:24;;;;;;;;;;;;;;;22.86;57.58;100861.06;7344958;19;19951;-60
2023/06/27 12:02:57;;;;;;;;;;;;;;;23.14;57.51;100899.03;7344749;19;19945;-60
2023/06/27 12:05:23;;;;;;;;;;;;;;;23.12;57.55;100895.66;7344477;19;19934;-60
2023/06/27 12:07:58;;;;;;;;;;;;;;;23.12;57.67;100904.50;7349348;19;22089;-60
2023/06/27 12:10:23;;;;;;;;;;;;;;;23.11;57.71;100901.91;7351124;19;19934;-60
2023/06/27 12:12:49;;;;;;;;;;;;;;;23.11;57.69;100901.91;7346102;19;20458;-60
2023/06/27 12:15:15;;;;;;;;;;;;;;;23.12;57.69;100900.97;7347865;19;20760;-60
2023/06/27 12:18:00;;;;;;;;;;;;;;;23.12;58.08;100899.16;7346427;19;19919;-60
2023/06/27 12:20:26;;;;;;;;;;;;;;;23.13;57.87;100902.66;7348727;19;19923;-60
2023/06/27 12:22:51;;;;;;;;;;;;;;;23.12;58.10;100892.97;7346165;19;20366;-60
2023/06/27 12:25:16;;;;;;;;;;;;;;;23.12;57.65;100895.66;7347649;19;20783;-60
2023/06/27 12:27:42;;;;;;;;;;;;;;;23.13;57.99;100889.34;7348330;19;20728;-60
2023/06/27 12:30:09;;;;;;;;;;;;;;;23.14;58.44;100883.91;7348326;19;19926;-60
2023/06/27 12:32:35;;;;;;;;;;;;;;;23.20;58.67;100879.94;7345596;19;20293;-60